Macon Lake, Arkansas
Current Conditions -  °F | °C
As of 7:53 PM on Friday 28 Nov 2014 (Local Time) from KGLH Reporting Station
Clear Clear  
Wind Chill: 43°   Ceiling: Unl
Heat Index: 47°   Visibility: 10mi
Dew Point: 31°   Wind: 9mph
Humidity: 54%   Direction: 160°SSE
Pressure: 30.16"   Gusts: NA
Location:  33.3324°N, 91.3183°W
Report Text: KGLH 290153Z AUTO 16008KT 10SM CLR 08/M01 A3016 RMK AO2 SLP223 T00831006
Loading
Personal Weather Stations






























Interactive Weather Map New forecast layout! Learn more

10-Day Weather Forecast

Advertisements
Track Severe Weather on mobile